createdAt,value
2018-05-23T00:02:00.232Z,68.88
2018-05-23T00:04:26.255Z,69.56
2018-05-23T00:06:52.610Z,69.77
2018-05-23T00:09:18.642Z,70.85
2018-05-23T00:11:44.769Z,71.10
2018-05-23T00:14:10.770Z,71.93
2018-05-23T00:16:37.536Z,71.05
2018-05-23T00:19:03.635Z,71.56
2018-05-23T00:21:29.762Z,71.69
2018-05-23T00:23:55.786Z,71.52
2018-05-23T00:26:21.808Z,72.21
2018-05-23T00:28:47.814Z,71.63
2018-05-23T00:31:13.808Z,71.07
2018-05-23T00:33:39.837Z,72.52
2018-05-23T00:36:06.104Z,72.06
2018-05-23T00:38:32.106Z,72.63
2018-05-23T00:40:58.134Z,72.36
2018-05-23T00:43:24.156Z,72.28
2018-05-23T00:45:50.559Z,72.36
2018-05-23T00:48:16.591Z,73.33
2018-05-23T00:50:42.680Z,72.40
2018-05-23T00:53:08.754Z,72.39
2018-05-23T00:55:34.761Z,73.71
2018-05-23T00:58:00.783Z,72.92
2018-05-23T01:00:26.874Z,74.34
2018-05-23T01:02:52.975Z,74.32
2018-05-23T01:05:18.989Z,74.00
2018-05-23T01:07:45.022Z,72.86
2018-05-23T01:10:11.070Z,72.71
2018-05-23T01:12:37.111Z,73.70
2018-05-23T01:15:03.134Z,73.06
2018-05-23T01:17:29.227Z,73.23
2018-05-23T01:19:55.385Z,73.02
2018-05-23T01:22:21.439Z,72.95
2018-05-23T01:24:47.462Z,73.16
2018-05-23T01:27:13.502Z,73.74
2018-05-23T01:29:39.587Z,73.08
2018-05-23T01:32:05.615Z,72.80
2018-05-23T01:34:31.628Z,73.40
2018-05-23T01:36:57.665Z,72.98
2018-05-23T01:39:23.737Z,73.14
2018-05-23T01:41:49.747Z,74.01
2018-05-23T01:44:15.801Z,74.16
2018-05-23T01:46:41.815Z,73.61
2018-05-23T01:49:19.971Z,74.15
2018-05-23T01:51:46.007Z,74.43
2018-05-23T01:54:12.034Z,73.91
2018-05-23T01:56:38.107Z,74.63
2018-05-23T01:59:04.129Z,75.01
2018-05-23T02:01:30.135Z,74.60
2018-05-23T02:03:56.238Z,74.99
2018-05-23T02:06:22.258Z,75.32
2018-05-23T02:08:48.450Z,74.95
2018-05-23T02:11:14.504Z,75.02
2018-05-23T02:13:40.589Z,75.48
2018-05-23T02:16:06.662Z,75.91
2018-05-23T02:18:32.716Z,75.98
2018-05-23T02:20:59.405Z,75.44
2018-05-23T02:23:25.414Z,76.32
2018-05-23T02:25:51.454Z,75.99
2018-05-23T02:28:17.578Z,76.91
2018-05-23T02:30:43.617Z,76.36
2018-05-23T02:33:09.645Z,75.88
2018-05-23T02:35:35.660Z,76.90
2018-05-23T02:38:01.672Z,76.89
2018-05-23T02:40:27.706Z,77.07
2018-05-23T02:42:53.741Z,76.59
2018-05-23T02:45:19.830Z,76.35
2018-05-23T02:47:45.859Z,76.42
2018-05-23T02:50:11.903Z,76.80
2018-05-23T02:52:37.951Z,77.48
2018-05-23T02:55:03.991Z,77.50
2018-05-23T02:57:30.039Z,77.23
2018-05-23T02:59:56.101Z,78.10
2018-05-23T03:02:22.159Z,77.43
2018-05-23T03:04:48.184Z,77.44
2018-05-23T03:07:14.217Z,76.46
2018-05-23T03:09:40.262Z,77.67
2018-05-23T03:12:06.281Z,77.67
2018-05-23T03:14:32.298Z,78.28
2018-05-23T03:16:58.346Z,78.15
2018-05-23T03:19:24.452Z,77.73
2018-05-23T03:21:50.474Z,77.22
2018-05-23T03:24:16.502Z,77.87
2018-05-23T03:26:42.566Z,78.01
2018-05-23T03:29:08.688Z,78.53
2018-05-23T03:31:34.706Z,78.08
2018-05-23T03:34:00.764Z,77.87
2018-05-23T03:36:27.129Z,78.96
2018-05-23T03:38:53.212Z,79.26
2018-05-23T03:41:19.311Z,78.92
2018-05-23T03:43:45.325Z,79.64
2018-05-23T03:46:11.325Z,79.08
2018-05-23T03:48:38.023Z,78.92
2018-05-23T03:51:04.050Z,79.06
2018-05-23T03:53:30.104Z,79.07
2018-05-23T03:55:56.151Z,78.39
2018-05-23T03:58:22.177Z,77.81
2018-05-23T04:03:59.965Z,78.02
2018-05-23T04:06:27.689Z,78.31
2018-05-23T04:08:53.725Z,78.34
2018-05-23T04:11:19.776Z,78.73
2018-05-23T04:13:45.789Z,78.50
2018-05-23T04:16:11.831Z,78.96
2018-05-23T04:18:37.877Z,77.89
2018-05-23T04:21:03.942Z,79.00
2018-05-23T04:23:29.968Z,79.10
2018-05-23T04:25:56.020Z,81.01
2018-05-23T04:28:22.073Z,82.19
2018-05-23T04:30:48.142Z,81.77
2018-05-23T04:33:14.176Z,82.21
2018-05-23T04:35:40.224Z,81.06
2018-05-23T04:38:06.253Z,81.26
2018-05-23T04:40:32.366Z,82.48
2018-05-23T04:42:58.421Z,80.49
2018-05-23T04:45:24.450Z,83.39
2018-05-23T04:47:50.494Z,82.99
2018-05-23T04:50:16.563Z,83.14
2018-05-23T04:52:42.692Z,82.36
2018-05-23T04:55:08.725Z,81.60
2018-05-23T04:57:34.755Z,81.80
2018-05-23T05:00:00.985Z,82.06
2018-05-23T05:02:27.545Z,82.34
2018-05-23T05:04:53.613Z,81.84
2018-05-23T05:07:19.684Z,83.68
2018-05-23T05:09:45.708Z,82.54
2018-05-23T05:12:11.762Z,82.25
2018-05-23T05:14:37.848Z,82.00
2018-05-23T05:17:03.890Z,83.95
2018-05-23T05:19:29.945Z,84.01
2018-05-23T05:21:56.350Z,85.49
2018-05-23T05:24:22.437Z,84.44
2018-05-23T05:26:48.503Z,83.90
2018-05-23T05:29:14.543Z,84.62
2018-05-23T05:31:40.731Z,85.79
2018-05-23T05:34:07.211Z,88.59
2018-05-23T05:36:33.292Z,89.17
2018-05-23T05:38:59.413Z,86.99
2018-05-23T05:41:25.431Z,89.00
2018-05-23T05:43:51.494Z,89.25
2018-05-23T05:46:17.602Z,88.07
2018-05-23T05:48:43.605Z,89.20
2018-05-23T05:51:09.698Z,88.72
2018-05-23T05:53:35.820Z,88.81
2018-05-23T05:56:01.787Z,89.20
2018-05-23T05:58:28.280Z,89.71
2018-05-23T06:00:54.281Z,89.74
2018-05-23T06:03:20.309Z,88.54
2018-05-23T06:05:46.390Z,88.59
2018-05-23T06:08:12.397Z,89.73
2018-05-23T06:10:38.457Z,89.90
2018-05-23T06:13:04.606Z,89.80
2018-05-23T06:15:30.648Z,89.59
2018-05-23T06:17:57.287Z,90.15
2018-05-23T06:20:23.348Z,89.37
2018-05-23T06:22:49.361Z,89.45
2018-05-23T06:25:15.481Z,88.89
2018-05-23T06:27:41.574Z,89.48
2018-05-23T06:30:07.623Z,88.69
2018-05-23T06:32:33.645Z,90.19
2018-05-23T06:34:59.686Z,89.82
2018-05-23T06:37:25.721Z,89.58
2018-05-23T06:39:51.722Z,89.74
2018-05-23T06:42:17.717Z,89.42
2018-05-23T06:44:43.740Z,89.08
2018-05-23T06:47:09.764Z,88.39
2018-05-23T06:49:35.794Z,88.70
2018-05-23T06:52:01.810Z,89.52
2018-05-23T06:54:27.831Z,88.61
2018-05-23T06:56:53.905Z,88.52
2018-05-23T06:59:19.945Z,90.51
2018-05-23T07:01:45.955Z,90.83
2018-05-23T07:04:12.005Z,91.59
2018-05-23T07:06:38.031Z,92.59
2018-05-23T07:09:05.025Z,94.18
2018-05-23T07:11:31.116Z,94.42
2018-05-23T07:13:57.164Z,93.97
2018-05-23T07:16:23.265Z,94.18
2018-05-23T07:18:49.309Z,94.11
2018-05-23T07:21:15.393Z,94.97
2018-05-23T07:23:41.579Z,94.57
2018-05-23T07:26:07.648Z,95.36
2018-05-23T07:28:33.706Z,94.76
2018-05-23T07:30:59.753Z,94.42
2018-05-23T07:33:25.804Z,94.75
2018-05-23T07:35:51.863Z,93.88
2018-05-23T07:38:17.900Z,93.90
2018-05-23T07:40:43.934Z,94.15
2018-05-23T07:43:09.983Z,94.85
2018-05-23T07:45:36.026Z,94.80
2018-05-23T07:48:02.051Z,94.57
2018-05-23T07:50:28.682Z,94.57
2018-05-23T07:52:54.807Z,94.71
2018-05-23T07:55:21.347Z,94.79
2018-05-23T07:57:47.422Z,95.09
2018-05-23T08:00:13.450Z,94.87
2018-05-23T08:02:39.546Z,94.67
2018-05-23T08:05:05.707Z,93.90
2018-05-23T08:07:31.751Z,93.71
2018-05-23T08:09:57.821Z,93.55
2018-05-23T08:12:23.878Z,93.37
2018-05-23T08:14:49.952Z,93.31
2018-05-23T08:17:16.018Z,93.16
2018-05-23T08:19:42.068Z,92.92
2018-05-23T08:22:08.084Z,91.81
2018-05-23T08:24:34.115Z,90.72
2018-05-23T08:27:00.232Z,90.57
2018-05-23T08:29:26.333Z,89.91
2018-05-23T08:31:52.369Z,88.38
2018-05-23T08:34:18.452Z,89.66
2018-05-23T08:36:44.858Z,90.11
2018-05-23T08:39:10.936Z,90.14
2018-05-23T08:41:36.996Z,87.72
2018-05-23T08:44:03.243Z,88.64
2018-05-23T08:46:29.340Z,86.37
2018-05-23T08:48:55.361Z,87.12
2018-05-23T08:51:21.548Z,85.80
2018-05-23T08:53:47.680Z,87.40
2018-05-23T08:56:13.734Z,87.92
2018-05-23T08:58:39.783Z,85.89
2018-05-23T09:01:05.850Z,86.44
2018-05-23T09:03:31.898Z,85.76
2018-05-23T09:05:58.006Z,86.37
2018-05-23T09:08:24.084Z,85.67
2018-05-23T09:10:50.142Z,86.06
2018-05-23T09:13:16.169Z,85.06
2018-05-23T09:15:42.182Z,85.98
2018-05-23T09:18:08.194Z,85.93
2018-05-23T09:20:34.257Z,85.37
2018-05-23T09:23:00.254Z,85.77
2018-05-23T09:25:26.393Z,84.44
2018-05-23T09:27:52.370Z,84.35
2018-05-23T09:30:18.447Z,83.37
2018-05-23T09:32:44.476Z,82.63
2018-05-23T09:35:10.524Z,81.83
2018-05-23T09:37:36.557Z,81.14
2018-05-23T09:40:03.243Z,80.93
2018-05-23T09:42:29.406Z,80.47
2018-05-23T09:44:55.435Z,80.91
2018-05-23T09:47:21.456Z,80.96
2018-05-23T09:49:48.458Z,81.62
2018-05-23T09:52:14.533Z,81.02
2018-05-23T09:54:40.553Z,83.05
2018-05-23T09:57:06.664Z,81.61
2018-05-23T09:59:32.733Z,80.72
2018-05-23T10:01:58.779Z,81.38
2018-05-23T10:04:24.805Z,81.06
2018-05-23T10:06:51.002Z,82.66
2018-05-23T10:09:17.087Z,83.38
2018-05-23T10:11:43.215Z,79.88
2018-05-23T10:14:09.255Z,81.44
2018-05-23T10:16:35.271Z,80.23
2018-05-23T10:19:01.374Z,80.24
2018-05-23T10:21:27.498Z,78.58
2018-05-23T10:23:53.604Z,81.51
2018-05-23T10:26:19.726Z,81.26
2018-05-23T10:28:45.729Z,81.14
2018-05-23T10:31:11.796Z,80.72
2018-05-23T10:33:37.910Z,81.10
2018-05-23T10:36:03.919Z,81.77
2018-05-23T10:38:29.961Z,81.87
2018-05-23T10:40:56.012Z,81.16
2018-05-23T10:43:22.087Z,81.93
2018-05-23T10:45:48.134Z,80.11
2018-05-23T10:48:14.166Z,80.40
2018-05-23T10:50:40.227Z,80.97
2018-05-23T10:53:06.322Z,79.39
2018-05-23T10:55:32.405Z,78.71
2018-05-23T10:57:58.495Z,79.92
2018-05-23T11:00:24.582Z,80.52
2018-05-23T11:02:50.694Z,80.29
2018-05-23T11:05:16.703Z,79.40
2018-05-23T11:07:42.847Z,78.75
2018-05-23T11:10:08.898Z,80.38
2018-05-23T11:12:34.913Z,80.38
2018-05-23T11:15:01.092Z,80.83
2018-05-23T11:17:27.183Z,79.36
2018-05-23T11:19:53.278Z,79.61
2018-05-23T11:22:19.298Z,78.58
2018-05-23T11:24:45.373Z,77.81
2018-05-23T11:27:11.539Z,79.62
2018-05-23T11:29:37.620Z,78.08
2018-05-23T11:32:03.685Z,78.70
2018-05-23T11:34:29.717Z,77.89
2018-05-23T11:36:55.845Z,76.41
2018-05-23T11:39:21.889Z,75.38
2018-05-23T11:41:47.895Z,74.29
2018-05-23T11:44:13.922Z,72.67
2018-05-23T11:46:39.970Z,72.74
2018-05-23T11:49:05.959Z,68.46
2018-05-23T11:51:32.031Z,68.61
2018-05-23T11:53:58.085Z,65.69
2018-05-23T11:56:24.110Z,62.05
2018-05-23T11:58:50.266Z,60.26
2018-05-23T12:01:16.293Z,62.86
2018-05-23T12:03:42.303Z,60.67
2018-05-23T12:06:08.331Z,60.26
2018-05-23T12:08:34.408Z,56.04
2018-05-23T12:11:00.454Z,56.13
2018-05-23T12:13:26.500Z,56.82
2018-05-23T12:15:52.547Z,57.48
2018-05-23T12:18:18.621Z,55.05
2018-05-23T12:20:44.640Z,54.90
2018-05-23T12:23:10.705Z,53.82
2018-05-23T12:25:36.758Z,50.71
2018-05-23T12:28:03.790Z,52.89
2018-05-23T12:30:29.813Z,51.80
2018-05-23T12:32:55.866Z,54.11
2018-05-23T12:35:21.909Z,51.23
2018-05-23T12:37:47.940Z,54.07
2018-05-23T12:40:13.964Z,55.70
2018-05-23T12:42:40.026Z,56.89
2018-05-23T12:45:06.044Z,55.69
2018-05-23T12:47:32.152Z,57.75
2018-05-23T12:49:58.179Z,57.90
2018-05-23T12:52:24.210Z,58.07
2018-05-23T12:54:50.369Z,57.77
2018-05-23T12:57:16.446Z,58.30
2018-05-23T12:59:42.598Z,56.17
2018-05-23T13:02:08.646Z,57.45
2018-05-23T13:04:34.708Z,57.81
2018-05-23T13:07:00.745Z,56.32
2018-05-23T13:09:26.858Z,60.89
2018-05-23T13:11:52.893Z,60.23
2018-05-23T13:14:19.219Z,61.09
2018-05-23T13:16:45.334Z,61.44
2018-05-23T13:19:11.418Z,60.19
2018-05-23T13:21:37.545Z,57.63
2018-05-23T13:24:03.610Z,57.23
2018-05-23T13:26:29.724Z,58.84
2018-05-23T13:28:55.745Z,58.42
2018-05-23T13:31:21.826Z,56.57
2018-05-23T13:33:47.859Z,54.45
2018-05-23T13:36:13.875Z,51.21
2018-05-23T13:38:39.912Z,54.47
2018-05-23T13:41:05.933Z,51.81
2018-05-23T13:43:31.962Z,50.18
2018-05-23T13:45:57.990Z,50.19
2018-05-23T13:48:24.032Z,46.77
2018-05-23T13:50:50.156Z,42.70
2018-05-23T13:53:16.209Z,40.98
2018-05-23T13:55:42.267Z,45.50
2018-05-23T13:58:08.331Z,44.31
2018-05-23T14:00:34.350Z,46.70
2018-05-23T14:03:00.374Z,47.00
2018-05-23T14:05:26.426Z,45.79
2018-05-23T14:07:52.438Z,46.89
2018-05-23T14:10:18.519Z,47.18
2018-05-23T14:12:44.610Z,48.98
2018-05-23T14:15:10.702Z,45.66
2018-05-23T14:17:36.735Z,48.63
2018-05-23T14:20:02.964Z,43.95
2018-05-23T14:22:29.044Z,41.33
2018-05-23T14:24:56.054Z,40.49
2018-05-23T14:27:22.066Z,40.03
2018-05-23T14:29:48.117Z,41.67
2018-05-23T14:32:14.201Z,39.20
2018-05-23T14:34:40.225Z,38.31
2018-05-23T14:37:06.280Z,38.65
2018-05-23T14:39:32.367Z,39.99
2018-05-23T14:41:58.407Z,39.74
2018-05-23T14:44:24.494Z,39.66
2018-05-23T14:46:50.789Z,39.27
2018-05-23T14:49:16.831Z,41.46
2018-05-23T14:51:42.898Z,40.50
2018-05-23T14:54:09.080Z,41.35
2018-05-23T14:56:35.309Z,39.53
2018-05-23T14:59:01.470Z,39.94
2018-05-23T15:01:27.515Z,41.47
2018-05-23T15:03:53.589Z,40.39
2018-05-23T15:06:19.678Z,43.16
2018-05-23T15:08:45.779Z,42.23
2018-05-23T15:11:11.912Z,41.99
2018-05-23T15:13:37.957Z,42.84
2018-05-23T15:16:04.007Z,43.00
2018-05-23T15:18:30.056Z,44.31
2018-05-23T15:20:56.223Z,45.43
2018-05-23T15:23:22.308Z,44.77
2018-05-23T15:25:48.346Z,39.22
2018-05-23T15:28:14.397Z,38.83
2018-05-23T15:30:40.480Z,37.43
2018-05-23T15:33:06.549Z,40.53
2018-05-23T15:35:32.645Z,37.57
2018-05-23T15:37:58.679Z,40.74
2018-05-23T15:40:24.737Z,41.44
2018-05-23T15:42:51.036Z,43.40
2018-05-23T15:45:17.197Z,45.26
2018-05-23T15:47:43.276Z,42.63
2018-05-23T15:50:09.438Z,43.83
2018-05-23T15:52:35.499Z,44.75
2018-05-23T15:55:01.639Z,45.82
2018-05-23T15:57:27.688Z,45.18
2018-05-23T15:59:53.733Z,46.57
2018-05-23T16:02:19.754Z,48.81
2018-05-23T21:55:03.750Z,57.80
2018-05-23T21:57:29.801Z,58.27
2018-05-23T21:59:56.020Z,58.36
2018-05-23T22:02:22.083Z,58.58
2018-05-23T22:04:48.150Z,58.89
2018-05-23T22:07:14.184Z,59.28
2018-05-23T22:09:40.232Z,59.83
2018-05-23T22:12:06.494Z,60.01
2018-05-23T22:14:32.555Z,60.54
2018-05-23T22:16:58.613Z,60.62
2018-05-23T22:19:24.688Z,60.33
2018-05-23T22:21:50.713Z,60.93
2018-05-23T22:24:16.728Z,61.64
2018-05-23T22:26:42.776Z,61.34
2018-05-23T22:29:08.833Z,61.99
2018-05-23T22:31:34.882Z,62.19
2018-05-23T22:34:00.922Z,63.07
2018-05-23T22:36:26.969Z,62.92
2018-05-23T22:38:53.119Z,62.66
2018-05-23T22:41:19.177Z,63.03
2018-05-23T22:43:45.371Z,62.94
2018-05-23T22:46:11.802Z,62.69
2018-05-23T22:48:38.695Z,62.51
2018-05-23T22:51:04.731Z,62.53
2018-05-23T22:53:30.746Z,62.08
2018-05-23T22:55:56.785Z,62.42
2018-05-23T22:58:22.946Z,62.28
2018-05-23T23:00:48.976Z,61.54
2018-05-23T23:03:15.715Z,61.36
2018-05-23T23:05:41.896Z,60.81
2018-05-23T23:08:07.922Z,60.89
2018-05-23T23:10:33.960Z,60.42
2018-05-23T23:13:00.105Z,60.35
2018-05-23T23:15:26.129Z,60.54
2018-05-23T23:17:52.165Z,59.50
2018-05-23T23:20:18.206Z,59.46
2018-05-23T23:22:44.314Z,59.30
2018-05-23T23:25:10.404Z,60.03
2018-05-23T23:27:36.605Z,59.87
2018-05-23T23:30:02.737Z,60.25
2018-05-23T23:32:28.684Z,60.29
2018-05-23T23:34:54.755Z,59.30
2018-05-23T23:37:20.857Z,59.37
2018-05-23T23:39:47.050Z,59.36
2018-05-23T23:42:13.366Z,59.76
2018-05-23T23:44:39.746Z,58.62
2018-05-23T23:47:05.775Z,59.65
2018-05-23T23:49:31.805Z,59.11
2018-05-23T23:51:57.878Z,59.17
2018-05-23T23:54:24.131Z,59.46
2018-05-23T23:56:50.150Z,58.76
2018-05-23T23:59:16.204Z,59.23
